createdAt,value
2017-06-09T00:00:35.710Z,17.79
2017-06-09T00:01:16.302Z,17.87
2017-06-09T00:01:56.895Z,17.86
2017-06-09T00:02:37.486Z,17.87
2017-06-09T00:03:18.071Z,17.87
2017-06-09T00:03:58.662Z,17.85
2017-06-09T00:04:39.255Z,17.89
2017-06-09T00:05:19.837Z,17.8
2017-06-09T00:06:00.427Z,17.8
2017-06-09T00:06:41.021Z,17.86
2017-06-09T00:07:21.608Z,17.83
2017-06-09T00:08:02.203Z,17.76
2017-06-09T00:08:42.820Z,17.7
2017-06-09T00:09:23.427Z,17.72
2017-06-09T00:10:04.023Z,17.78
2017-06-09T00:10:44.615Z,17.71
2017-06-09T00:11:25.203Z,17.79
2017-06-09T00:12:05.854Z,17.78
2017-06-09T00:12:46.426Z,17.78
2017-06-09T00:13:27.074Z,17.79
2017-06-09T00:14:07.653Z,17.7
2017-06-09T00:14:48.266Z,17.67
2017-06-09T00:15:28.865Z,17.79
2017-06-09T00:16:09.453Z,17.72
2017-06-09T00:16:50.062Z,17.74
2017-06-09T00:17:30.624Z,17.7
2017-06-09T00:18:11.205Z,17.72
2017-06-09T00:18:51.823Z,17.68
2017-06-09T00:19:32.474Z,17.71
2017-06-09T00:20:13.065Z,17.68
2017-06-09T00:20:53.649Z,17.72
2017-06-09T00:21:34.239Z,17.74
2017-06-09T00:22:14.836Z,17.68
2017-06-09T00:22:55.460Z,17.74
2017-06-09T00:23:36.056Z,17.7
2017-06-09T00:24:16.638Z,17.7
2017-06-09T00:24:57.222Z,17.65
2017-06-09T00:25:37.800Z,17.68
2017-06-09T00:26:18.390Z,17.7
2017-06-09T00:26:58.978Z,17.67
2017-06-09T00:27:39.556Z,17.63
2017-06-09T00:28:20.139Z,17.63
2017-06-09T00:29:00.729Z,17.59
2017-06-09T00:29:41.365Z,17.63
2017-06-09T00:30:21.968Z,17.57
2017-06-09T00:31:02.556Z,17.59
2017-06-09T00:31:43.138Z,17.6
2017-06-09T00:32:23.785Z,17.63
2017-06-09T00:33:04.367Z,17.64
2017-06-09T00:33:44.968Z,17.59
2017-06-09T00:34:25.554Z,17.59
2017-06-09T00:35:06.153Z,17.63
2017-06-09T00:35:46.734Z,17.54
2017-06-09T00:36:27.325Z,17.63
2017-06-09T00:37:07.915Z,17.49
2017-06-09T00:37:48.506Z,17.63
2017-06-09T00:38:29.091Z,17.57
2017-06-09T00:39:09.666Z,17.46
2017-06-09T00:39:50.247Z,17.45
2017-06-09T00:40:30.847Z,17.49
2017-06-09T00:41:18.260Z,17.52
2017-06-09T00:41:58.852Z,17.44
2017-06-09T00:42:39.439Z,17.48
2017-06-09T00:43:20.046Z,17.46
2017-06-09T00:44:00.631Z,17.49
2017-06-09T00:44:41.205Z,17.45
2017-06-09T00:45:21.775Z,17.45
2017-06-09T00:46:02.407Z,17.45
2017-06-09T00:46:43.002Z,17.45
2017-06-09T00:47:23.670Z,17.45
2017-06-09T00:48:04.287Z,17.45
2017-06-09T00:48:44.858Z,17.44
2017-06-09T00:49:25.472Z,17.41
2017-06-09T00:50:06.060Z,17.42
2017-06-09T00:50:46.650Z,17.39
2017-06-09T00:51:27.241Z,17.45
2017-06-09T00:52:08.348Z,17.41
2017-06-09T00:52:48.940Z,17.39
2017-06-09T00:53:29.581Z,17.44
2017-06-09T00:54:10.167Z,17.39
2017-06-09T00:54:50.759Z,17.42
2017-06-09T00:55:31.347Z,17.36
2017-06-09T00:56:11.968Z,17.39
2017-06-09T00:56:52.560Z,17.39
2017-06-09T00:57:33.167Z,17.38
2017-06-09T00:58:13.755Z,17.34
2017-06-09T00:58:54.333Z,17.36
2017-06-09T00:59:34.920Z,17.39
2017-06-09T01:00:18.697Z,17.31
2017-06-09T01:01:00.891Z,17.34
2017-06-09T01:01:41.471Z,17.33
2017-06-09T01:02:22.051Z,17.31
2017-06-09T01:03:02.633Z,17.31
2017-06-09T01:03:43.243Z,17.36
2017-06-09T01:04:23.835Z,17.33
2017-06-09T01:05:04.421Z,17.33
2017-06-09T01:05:44.996Z,17.33
2017-06-09T01:06:25.583Z,17.27
2017-06-09T01:07:06.161Z,17.34
2017-06-09T01:07:46.762Z,17.34
2017-06-09T01:08:27.348Z,17.3
2017-06-09T01:09:07.947Z,17.3
2017-06-09T01:09:48.514Z,17.3
2017-06-09T01:10:29.104Z,17.34
2017-06-09T01:11:09.681Z,17.34
2017-06-09T01:11:50.268Z,17.33
2017-06-09T01:12:30.852Z,17.36
2017-06-09T01:13:11.453Z,17.31
2017-06-09T01:13:52.039Z,17.29
2017-06-09T01:14:32.638Z,17.23
2017-06-09T01:15:13.235Z,17.2
2017-06-09T01:15:53.835Z,17.22
2017-06-09T01:16:34.456Z,17.22
2017-06-09T01:17:15.041Z,17.15
2017-06-09T01:17:55.647Z,17.16
2017-06-09T01:18:36.231Z,17.19
2017-06-09T01:19:16.816Z,17.31
2017-06-09T01:19:57.396Z,17.15
2017-06-09T01:20:38.048Z,17.29
2017-06-09T01:21:18.633Z,17.27
2017-06-09T01:21:59.224Z,17.22
2017-06-09T01:22:39.815Z,17.22
2017-06-09T01:23:20.406Z,17.19
2017-06-09T01:24:00.994Z,17.15
2017-06-09T01:24:41.585Z,17.19
2017-06-09T01:25:22.172Z,17.2
2017-06-09T01:26:02.778Z,17.2
2017-06-09T01:26:43.355Z,17.16
2017-06-09T01:27:23.934Z,17.26
2017-06-09T01:28:04.516Z,17.22
2017-06-09T01:28:45.096Z,17.11
2017-06-09T01:29:25.688Z,17.24
2017-06-09T01:30:06.284Z,17.19
2017-06-09T01:30:46.870Z,17.11
2017-06-09T01:31:27.478Z,17.19
2017-06-09T01:32:08.082Z,17.15
2017-06-09T01:32:48.662Z,17.14
2017-06-09T01:33:29.239Z,17.16
2017-06-09T01:34:09.821Z,17.14
2017-06-09T01:34:50.424Z,17.12
2017-06-09T01:35:31.010Z,17.11
2017-06-09T01:36:11.632Z,17.15
2017-06-09T01:36:52.215Z,17.11
2017-06-09T01:37:32.805Z,17.14
2017-06-09T01:38:13.392Z,17.14
2017-06-09T01:38:53.976Z,17.08
2017-06-09T01:39:34.566Z,17.11
2017-06-09T01:40:15.153Z,17.05
2017-06-09T01:40:55.741Z,17.06
2017-06-09T01:41:36.323Z,17.04
2017-06-09T01:42:16.908Z,17.05
2017-06-09T01:42:57.514Z,17.04
2017-06-09T01:43:38.115Z,17.02
2017-06-09T01:44:18.713Z,17.08
2017-06-09T01:44:59.281Z,17.04
2017-06-09T01:45:39.863Z,17.02
2017-06-09T01:46:20.462Z,17.04
2017-06-09T01:47:01.059Z,17.04
2017-06-09T01:47:41.641Z,16.97
2017-06-09T01:48:22.236Z,17.05
2017-06-09T01:49:02.819Z,17.02
2017-06-09T01:49:43.410Z,16.99
2017-06-09T01:50:24.012Z,17.04
2017-06-09T01:51:04.606Z,17.05
2017-06-09T01:51:45.222Z,17.01
2017-06-09T01:52:25.842Z,17.02
2017-06-09T01:53:06.422Z,17.02
2017-06-09T01:53:47.005Z,17.06
2017-06-09T01:54:27.589Z,16.97
2017-06-09T01:55:08.229Z,16.99
2017-06-09T01:55:48.810Z,16.97
2017-06-09T01:56:29.418Z,16.94
2017-06-09T01:57:10.027Z,16.97
2017-06-09T01:57:50.620Z,16.99
2017-06-09T01:58:31.252Z,16.96
2017-06-09T01:59:11.838Z,16.97
2017-06-09T01:59:52.462Z,16.97
2017-06-09T02:00:33.038Z,16.9
2017-06-09T02:01:13.616Z,16.89
2017-06-09T02:01:54.213Z,16.94
2017-06-09T02:02:34.821Z,16.96
2017-06-09T02:03:15.410Z,16.91
2017-06-09T02:03:56.002Z,16.9
2017-06-09T02:04:36.602Z,16.89
2017-06-09T02:05:17.205Z,16.96
2017-06-09T02:05:57.809Z,16.87
2017-06-09T02:06:38.394Z,16.91
2017-06-09T02:07:18.998Z,16.91
2017-06-09T02:07:59.594Z,16.86
2017-06-09T02:08:40.198Z,16.86
2017-06-09T02:09:20.786Z,16.79
2017-06-09T02:10:01.374Z,16.86
2017-06-09T02:10:41.973Z,16.9
2017-06-09T02:11:22.574Z,16.83
2017-06-09T02:12:03.164Z,16.94
2017-06-09T02:12:43.740Z,16.86
2017-06-09T02:13:24.367Z,16.81
2017-06-09T02:14:04.964Z,16.79
2017-06-09T02:14:45.567Z,16.9
2017-06-09T02:15:26.164Z,16.78
2017-06-09T02:16:06.753Z,16.87
2017-06-09T02:16:47.391Z,16.89
2017-06-09T02:17:28.013Z,16.81
2017-06-09T02:18:08.657Z,16.84
2017-06-09T02:18:49.226Z,16.84
2017-06-09T02:19:29.823Z,16.81
2017-06-09T02:20:10.410Z,16.79
2017-06-09T02:20:50.993Z,16.76
2017-06-09T02:21:31.574Z,16.83
2017-06-09T02:22:12.263Z,16.78
2017-06-09T02:22:52.842Z,16.83
2017-06-09T02:23:33.428Z,16.74
2017-06-09T02:24:14.011Z,16.74
2017-06-09T02:24:54.618Z,16.79
2017-06-09T02:25:35.203Z,16.81
2017-06-09T02:26:15.804Z,16.72
2017-06-09T02:26:56.395Z,16.74
2017-06-09T02:27:36.980Z,16.72
2017-06-09T02:28:17.576Z,16.75
2017-06-09T02:28:58.163Z,16.72
2017-06-09T02:29:38.747Z,16.74
2017-06-09T02:30:19.330Z,16.78
2017-06-09T02:30:59.899Z,16.64
2017-06-09T02:31:40.598Z,16.64
2017-06-09T02:32:21.166Z,16.68
2017-06-09T02:33:01.757Z,16.6
2017-06-09T02:33:42.343Z,16.66
2017-06-09T02:34:22.963Z,16.72
2017-06-09T02:35:03.545Z,16.64
2017-06-09T02:35:44.127Z,16.69
2017-06-09T02:36:24.717Z,16.68
2017-06-09T02:37:05.300Z,16.65
2017-06-09T02:37:45.894Z,16.69
2017-06-09T02:38:26.497Z,16.71
2017-06-09T02:39:07.088Z,16.66
2017-06-09T02:39:47.677Z,16.72
2017-06-09T02:40:28.254Z,16.71
2017-06-09T02:41:08.858Z,16.71
2017-06-09T02:41:49.440Z,16.69
2017-06-09T02:42:30.020Z,16.66
2017-06-09T02:43:10.610Z,16.69
2017-06-09T02:43:51.281Z,16.66
2017-06-09T02:44:31.861Z,16.61
2017-06-09T02:45:12.440Z,16.65
2017-06-09T02:45:53.020Z,16.66
2017-06-09T02:46:33.669Z,16.61
2017-06-09T02:47:14.243Z,16.61
2017-06-09T02:47:54.859Z,16.61
2017-06-09T02:48:35.436Z,16.64
2017-06-09T02:49:16.020Z,16.6
2017-06-09T02:49:56.601Z,16.54
2017-06-09T02:50:37.186Z,16.57
2017-06-09T02:51:17.805Z,16.54
2017-06-09T02:51:58.386Z,16.56
2017-06-09T02:52:38.978Z,16.53
2017-06-09T02:53:19.560Z,16.56
2017-06-09T02:54:00.119Z,16.54
2017-06-09T02:54:40.733Z,16.58
2017-06-09T02:55:21.322Z,16.54
2017-06-09T02:56:01.906Z,16.49
2017-06-09T02:56:42.508Z,16.54
2017-06-09T02:57:23.110Z,16.5
2017-06-09T02:58:03.699Z,16.51
2017-06-09T02:58:44.287Z,16.49
2017-06-09T02:59:24.888Z,16.49
2017-06-09T03:00:05.487Z,16.53
2017-06-09T03:00:46.075Z,16.43
2017-06-09T03:01:26.682Z,16.56
2017-06-09T03:02:07.266Z,16.51
2017-06-09T03:02:47.913Z,16.5
2017-06-09T03:03:28.488Z,16.54
2017-06-09T03:04:09.115Z,16.54
2017-06-09T03:04:49.718Z,16.43
2017-06-09T03:05:30.347Z,16.49
2017-06-09T03:06:10.939Z,16.5
2017-06-09T03:06:51.530Z,16.46
2017-06-09T03:07:32.257Z,16.5
2017-06-09T03:08:12.863Z,16.46
2017-06-09T03:08:53.450Z,16.49
2017-06-09T03:09:34.023Z,16.43
2017-06-09T03:10:14.653Z,16.43
2017-06-09T03:10:55.240Z,16.41
2017-06-09T03:11:35.841Z,16.36
2017-06-09T03:12:16.451Z,16.41
2017-06-09T03:12:57.019Z,16.39
2017-06-09T03:13:37.613Z,16.35
2017-06-09T03:14:18.200Z,16.35
2017-06-09T03:14:58.771Z,16.35
2017-06-09T03:15:39.395Z,16.32
2017-06-09T03:16:20.023Z,16.33
2017-06-09T03:17:00.609Z,16.33
2017-06-09T03:17:41.235Z,16.35
2017-06-09T03:18:21.854Z,16.38
2017-06-09T03:19:02.453Z,16.32
2017-06-09T03:19:43.045Z,16.32
2017-06-09T03:20:23.736Z,16.33
2017-06-09T03:21:04.334Z,16.39
2017-06-09T03:21:44.929Z,16.35
2017-06-09T03:22:25.526Z,16.41
2017-06-09T03:23:06.108Z,16.38
2017-06-09T03:23:46.747Z,16.33
2017-06-09T03:24:27.333Z,16.39
2017-06-09T03:25:08.003Z,16.41
2017-06-09T03:25:48.598Z,16.46
2017-06-09T03:26:29.191Z,16.39
2017-06-09T03:27:09.800Z,16.46
2017-06-09T03:27:50.440Z,16.42
2017-06-09T03:28:31.046Z,16.41
2017-06-09T03:29:11.829Z,16.42
2017-06-09T03:29:52.479Z,16.41
2017-06-09T03:30:33.072Z,16.41
2017-06-09T03:31:13.655Z,16.46
2017-06-09T03:31:54.244Z,16.46
2017-06-09T03:32:35.069Z,16.39
2017-06-09T03:33:15.698Z,16.41
2017-06-09T03:33:56.470Z,16.39
2017-06-09T03:34:37.348Z,16.41
2017-06-09T03:35:17.953Z,16.42
2017-06-09T03:35:58.551Z,16.49
2017-06-09T03:36:39.164Z,16.43
2017-06-09T03:37:19.750Z,16.41
2017-06-09T03:38:00.338Z,16.43
2017-06-09T03:38:40.950Z,16.32
2017-06-09T03:39:21.603Z,16.41
2017-06-09T03:40:02.179Z,16.43
2017-06-09T03:40:42.792Z,16.43
2017-06-09T03:41:23.383Z,16.36
2017-06-09T03:42:03.973Z,16.43
2017-06-09T03:42:44.578Z,16.41
2017-06-09T03:43:25.237Z,16.41
2017-06-09T03:44:05.801Z,16.36
2017-06-09T03:44:46.379Z,16.47
2017-06-09T03:45:26.961Z,16.46
2017-06-09T03:46:07.568Z,16.42
2017-06-09T03:46:48.215Z,16.41
2017-06-09T03:47:28.805Z,16.36
2017-06-09T03:48:09.391Z,16.42
2017-06-09T03:48:50.008Z,16.41
2017-06-09T03:49:30.578Z,16.42
2017-06-09T03:50:11.190Z,16.46
2017-06-09T03:50:51.781Z,16.46
2017-06-09T03:51:32.358Z,16.41
2017-06-09T03:52:12.951Z,16.43
2017-06-09T03:52:53.600Z,16.46
2017-06-09T03:53:34.179Z,16.47
2017-06-09T03:54:14.774Z,16.36
2017-06-09T03:54:55.379Z,16.46
2017-06-09T03:55:35.967Z,16.42
2017-06-09T03:56:16.550Z,16.41
2017-06-09T03:56:57.158Z,16.5
2017-06-09T03:57:37.923Z,16.43
2017-06-09T03:58:18.520Z,16.42
2017-06-09T03:58:59.096Z,16.39
2017-06-09T03:59:39.739Z,16.32
2017-06-09T04:00:20.313Z,16.39
2017-06-09T04:01:00.917Z,16.33
2017-06-09T04:01:41.516Z,16.46
2017-06-09T04:02:22.113Z,16.47
2017-06-09T04:03:02.722Z,16.41
2017-06-09T04:03:43.320Z,16.5
2017-06-09T04:04:23.905Z,16.42
2017-06-09T04:05:04.484Z,16.43
2017-06-09T04:05:45.079Z,16.47
2017-06-09T04:06:25.685Z,16.42
2017-06-09T04:07:06.274Z,16.47
2017-06-09T04:07:46.856Z,16.46
2017-06-09T04:08:27.557Z,16.5
2017-06-09T04:09:08.139Z,16.5
2017-06-09T04:09:48.726Z,16.57
2017-06-09T04:10:29.334Z,16.51
2017-06-09T04:11:09.914Z,16.49
2017-06-09T04:11:50.495Z,16.51
2017-06-09T04:12:31.090Z,16.53
2017-06-09T04:13:11.678Z,16.5
2017-06-09T04:13:52.251Z,16.51
2017-06-09T04:14:32.846Z,16.56
2017-06-09T04:15:13.411Z,16.6
2017-06-09T04:15:53.985Z,16.54
2017-06-09T04:16:34.611Z,16.54
2017-06-09T04:17:15.188Z,16.54
2017-06-09T04:17:55.777Z,16.56
2017-06-09T04:18:36.408Z,16.56
2017-06-09T04:19:16.988Z,16.56
2017-06-09T04:19:57.583Z,16.57
2017-06-09T04:20:38.190Z,16.53
2017-06-09T04:21:18.768Z,16.57
2017-06-09T04:21:59.359Z,16.6
2017-06-09T04:22:39.981Z,16.54
2017-06-09T04:23:20.562Z,16.56
2017-06-09T04:24:01.169Z,16.6
2017-06-09T04:24:41.752Z,16.57
2017-06-09T04:25:22.344Z,16.57
2017-06-09T04:26:02.931Z,16.57
2017-06-09T04:26:43.509Z,16.57
2017-06-09T04:27:24.151Z,16.57
2017-06-09T04:28:04.744Z,16.58
2017-06-09T04:28:45.321Z,16.61
2017-06-09T04:29:25.913Z,16.64
2017-06-09T04:30:06.485Z,16.64
2017-06-09T04:30:47.069Z,16.65
2017-06-09T04:31:27.675Z,16.57
2017-06-09T04:32:08.271Z,16.66
2017-06-09T04:32:48.865Z,16.74
2017-06-09T04:33:29.458Z,16.78
2017-06-09T04:34:10.054Z,16.86
2017-06-09T04:34:50.724Z,16.94
2017-06-09T04:35:31.356Z,17.08
2017-06-09T04:36:11.946Z,17.11
2017-06-09T04:36:52.574Z,17.15
2017-06-09T04:37:33.161Z,17.26
2017-06-09T04:38:14.130Z,17.26
2017-06-09T04:38:54.845Z,17.39
2017-06-09T04:39:35.584Z,17.31
2017-06-09T04:40:16.176Z,17.38
2017-06-09T04:40:57.018Z,17.33
2017-06-09T04:41:37.612Z,17.42
2017-06-09T04:42:18.327Z,17.48
2017-06-09T04:42:58.947Z,17.46
2017-06-09T04:43:39.660Z,17.49
2017-06-09T04:44:20.263Z,17.52
2017-06-09T04:45:00.852Z,17.59
2017-06-09T04:45:41.451Z,17.54
2017-06-09T04:46:22.043Z,17.57
2017-06-09T04:47:02.628Z,17.65
2017-06-09T04:47:43.460Z,17.7
2017-06-09T04:48:24.086Z,17.76
2017-06-09T04:49:04.683Z,17.71
2017-06-09T04:49:45.272Z,17.64
2017-06-09T04:50:25.855Z,17.78
2017-06-09T04:51:06.462Z,17.79
2017-06-09T04:51:47.051Z,17.8
2017-06-09T04:52:27.643Z,17.72
2017-06-09T04:53:08.232Z,17.78
2017-06-09T04:53:48.876Z,17.89
2017-06-09T04:54:29.511Z,17.82
2017-06-09T04:55:10.119Z,17.89
2017-06-09T04:55:50.728Z,17.89
2017-06-09T04:56:31.335Z,17.86
2017-06-09T04:57:11.923Z,17.87
2017-06-09T04:57:52.530Z,17.83
2017-06-09T04:58:33.148Z,17.89
2017-06-09T04:59:13.746Z,17.9
2017-06-09T04:59:54.346Z,17.94
2017-06-09T05:00:34.933Z,17.98
2017-06-09T05:01:15.522Z,18.01
2017-06-09T05:01:56.104Z,18
2017-06-09T05:02:36.686Z,18.01
2017-06-09T05:03:17.270Z,18.15
2017-06-09T05:03:57.868Z,18.2
2017-06-09T05:04:38.571Z,18.22
2017-06-09T05:05:19.055Z,18.16
2017-06-09T05:05:59.757Z,18.1
2017-06-09T05:06:40.368Z,18.18
2017-06-09T05:07:20.996Z,18.25
2017-06-09T05:08:01.575Z,18.11
2017-06-09T05:08:42.157Z,18.23
2017-06-09T05:09:22.743Z,18.15
2017-06-09T05:10:03.328Z,18.19
2017-06-09T05:10:43.918Z,18.13
2017-06-09T05:11:24.531Z,18.19
2017-06-09T05:12:05.138Z,18.11
2017-06-09T05:12:45.855Z,18.26
2017-06-09T05:13:26.384Z,18.2
2017-06-09T05:14:07.054Z,18.28
2017-06-09T05:14:48.094Z,18.28
2017-06-09T05:15:28.733Z,18.29
2017-06-09T05:16:09.345Z,18.29
2017-06-09T05:16:49.939Z,18.28
2017-06-09T05:17:30.571Z,18.25
2017-06-09T05:18:11.189Z,18.25
2017-06-09T05:18:52.376Z,18.28
2017-06-09T05:19:32.963Z,18.44
2017-06-09T05:20:13.553Z,18.4
2017-06-09T05:20:55.063Z,18.43
2017-06-09T05:21:35.757Z,18.44
2017-06-09T05:22:16.619Z,18.53
2017-06-09T05:22:57.201Z,18.59
2017-06-09T05:23:37.889Z,18.55
2017-06-09T05:24:18.473Z,18.6
2017-06-09T05:24:59.095Z,18.75
2017-06-09T05:25:40.487Z,18.84
2017-06-09T05:26:21.097Z,18.95
2017-06-09T05:27:01.682Z,18.96
2017-06-09T05:27:42.282Z,18.93
2017-06-09T05:28:22.882Z,19.08
2017-06-09T05:29:03.494Z,19.15
2017-06-09T05:29:44.114Z,19.3
2017-06-09T05:30:24.692Z,19.27
2017-06-09T05:31:05.294Z,19.37
2017-06-09T05:31:45.881Z,19.45
2017-06-09T05:32:26.483Z,19.51
2017-06-09T05:33:07.073Z,19.59
2017-06-09T05:33:47.686Z,19.7
2017-06-09T05:34:28.319Z,19.76
2017-06-09T05:35:08.905Z,19.81
2017-06-09T05:35:49.505Z,19.86
2017-06-09T05:36:30.090Z,20.02
2017-06-09T05:37:10.703Z,19.92
2017-06-09T05:37:51.332Z,20.11
2017-06-09T05:38:31.933Z,20.18
2017-06-09T05:39:12.533Z,20.25
2017-06-09T05:39:53.149Z,20.36
2017-06-09T05:40:33.751Z,20.28
2017-06-09T05:41:14.346Z,20.39
2017-06-09T05:41:54.938Z,20.34
2017-06-09T05:42:35.525Z,20.5
2017-06-09T05:43:16.118Z,20.44
2017-06-09T05:43:56.747Z,20.56
2017-06-09T05:44:37.806Z,20.66
2017-06-09T05:45:18.472Z,20.74
2017-06-09T05:45:59.055Z,20.75
2017-06-09T05:46:39.652Z,20.82
2017-06-09T05:47:20.277Z,20.78
2017-06-09T05:48:00.890Z,20.93
2017-06-09T05:48:41.478Z,20.95
2017-06-09T05:49:22.233Z,21.03
2017-06-09T05:50:02.834Z,21.03
2017-06-09T05:50:43.420Z,21.14
2017-06-09T05:51:24.015Z,21.12
2017-06-09T05:52:04.647Z,21.18
2017-06-09T05:52:45.248Z,21.32
2017-06-09T05:53:25.843Z,21.35
2017-06-09T05:54:06.457Z,21.42
2017-06-09T05:54:47.053Z,21.54
2017-06-09T05:55:27.687Z,21.54
2017-06-09T05:56:08.253Z,21.62
2017-06-09T05:56:48.843Z,21.72
2017-06-09T05:57:29.473Z,21.72
2017-06-09T05:58:10.119Z,21.77
2017-06-09T05:58:50.775Z,21.83
2017-06-09T05:59:31.373Z,21.82
2017-06-09T06:00:11.985Z,21.76
2017-06-09T06:00:52.580Z,21.8
2017-06-09T06:01:33.191Z,21.88
2017-06-09T06:02:13.864Z,21.89
2017-06-09T06:02:54.595Z,21.96
2017-06-09T06:03:35.184Z,22.04
2017-06-09T06:04:15.857Z,22.07
2017-06-09T06:04:56.383Z,22.07
2017-06-09T06:05:36.980Z,22.11
2017-06-09T06:06:17.622Z,22.15
2017-06-09T06:06:58.224Z,22.17
2017-06-09T06:07:38.868Z,22.17
2017-06-09T06:08:19.430Z,22.22
2017-06-09T06:09:00.126Z,22.23
2017-06-09T06:09:40.774Z,22.28
2017-06-09T06:10:22.603Z,22.41
2017-06-09T06:11:04.494Z,22.43
2017-06-09T06:11:46.030Z,22.45
2017-06-09T06:12:29.601Z,22.59
2017-06-09T06:13:15.126Z,22.57
2017-06-09T06:13:57.621Z,22.69
2017-06-09T06:14:38.188Z,22.8
2017-06-09T06:15:18.816Z,22.78
2017-06-09T06:15:59.400Z,22.8
2017-06-09T06:16:41.608Z,22.81
2017-06-09T06:17:22.179Z,22.85
2017-06-09T06:18:02.955Z,22.98
2017-06-09T06:18:43.510Z,23.08
2017-06-09T06:19:24.117Z,23.1
2017-06-09T06:20:04.707Z,23.15
2017-06-09T06:20:45.342Z,23.27
2017-06-09T06:21:25.943Z,23.34
2017-06-09T06:22:06.542Z,23.37
2017-06-09T06:22:47.171Z,23.37
2017-06-09T06:23:27.863Z,23.47
2017-06-09T06:24:08.546Z,23.43
2017-06-09T06:24:49.150Z,23.51
2017-06-09T06:25:30.009Z,23.54
2017-06-09T06:26:10.678Z,23.54
2017-06-09T06:26:51.272Z,23.59
2017-06-09T06:27:31.906Z,23.65
2017-06-09T06:28:12.583Z,23.59
2017-06-09T06:28:53.201Z,23.69
2017-06-09T06:29:33.798Z,23.71
2017-06-09T06:30:14.390Z,23.74
2017-06-09T06:30:55.521Z,23.78
2017-06-09T06:31:36.328Z,23.86
2017-06-09T06:32:17.606Z,23.87
2017-06-09T06:32:59.084Z,24.01
2017-06-09T06:33:40.468Z,23.95
2017-06-09T06:34:25.069Z,24.01
2017-06-09T06:35:11.989Z,24.08
2017-06-09T06:36:03.398Z,24.16
2017-06-09T06:36:46.359Z,24.13
2017-06-09T06:37:32.470Z,24.13
2017-06-09T06:38:13.204Z,24.16
2017-06-09T06:38:54.457Z,24.1
2017-06-09T06:39:35.105Z,24.11
2017-06-09T06:40:15.721Z,24.1
2017-06-09T06:40:56.445Z,24.06
2017-06-09T06:41:37.560Z,24.14
2017-06-09T06:42:18.586Z,24.01
2017-06-09T06:43:00.450Z,24.06
2017-06-09T06:43:42.293Z,24.06
2017-06-09T06:44:24.246Z,24.11
2017-06-09T06:45:06.554Z,24.1
2017-06-09T06:45:48.493Z,24.05
2017-06-09T06:46:29.559Z,23.99
2017-06-09T06:47:10.475Z,23.96
2017-06-09T06:47:51.376Z,23.98
2017-06-09T06:48:32.206Z,23.96
2017-06-09T06:49:13.071Z,23.96
2017-06-09T06:49:54.832Z,24.01
2017-06-09T06:50:35.827Z,23.92
2017-06-09T06:51:16.584Z,23.86
2017-06-09T06:51:57.503Z,23.87
2017-06-09T06:52:38.529Z,23.88
2017-06-09T06:53:19.582Z,23.81
2017-06-09T06:54:00.384Z,23.87
2017-06-09T06:54:41.256Z,23.87
2017-06-09T06:55:22.033Z,23.78
2017-06-09T06:56:02.924Z,23.86
2017-06-09T06:56:44.985Z,23.74
2017-06-09T06:57:25.928Z,23.8
2017-06-09T06:58:06.649Z,23.76
2017-06-09T06:58:47.673Z,23.77
2017-06-09T06:59:28.596Z,23.73
2017-06-09T07:00:09.129Z,23.77
2017-06-09T07:00:53.555Z,23.81
2017-06-09T07:01:34.299Z,23.86
2017-06-09T07:02:15.001Z,23.92
2017-06-09T07:02:55.600Z,23.93
2017-06-09T07:03:36.813Z,23.95
2017-06-09T07:04:17.653Z,24.08
2017-06-09T07:04:58.691Z,24.06
2017-06-09T07:05:39.569Z,24.13
2017-06-09T07:06:20.175Z,24.02
2017-06-09T07:07:00.791Z,24.1
2017-06-09T07:07:41.415Z,24.13
2017-06-09T07:08:22.010Z,24.17
2017-06-09T07:09:02.592Z,24.2
2017-06-09T07:09:43.325Z,24.17
2017-06-09T07:10:23.939Z,24.16
2017-06-09T07:11:04.540Z,24.21
2017-06-09T07:11:45.138Z,24.14
2017-06-09T07:12:25.744Z,24.14
2017-06-09T07:13:06.340Z,24.11
2017-06-09T07:13:46.940Z,24.1
2017-06-09T07:14:27.538Z,24.11
2017-06-09T07:15:08.138Z,24.05
2017-06-09T07:15:52.216Z,24.06
2017-06-09T07:16:41.782Z,24.05
2017-06-09T07:17:22.370Z,24.17
2017-06-09T07:18:03.001Z,24.21
2017-06-09T07:18:43.611Z,24.17
2017-06-09T07:19:24.318Z,24.23
2017-06-09T07:20:04.940Z,24.26
2017-06-09T07:20:49.941Z,24.36
2017-06-09T07:21:30.547Z,24.4
2017-06-09T07:22:11.154Z,24.4
2017-06-09T07:22:56.914Z,24.55
2017-06-09T07:23:39.276Z,24.5
2017-06-09T07:24:21.910Z,24.53
2017-06-09T07:25:04.976Z,24.66
2017-06-09T07:25:47.696Z,24.55
2017-06-09T07:26:28.480Z,24.61
2017-06-09T07:27:12.368Z,24.6
2017-06-09T07:27:53.073Z,24.54
2017-06-09T07:28:33.701Z,24.65
2017-06-09T07:29:15.532Z,24.61
2017-06-09T07:29:56.769Z,24.61
2017-06-09T07:30:37.853Z,24.69
2017-06-09T07:31:18.454Z,24.65
2017-06-09T07:31:59.044Z,24.63
2017-06-09T07:32:40.016Z,24.76
2017-06-09T07:33:20.416Z,24.76
2017-06-09T07:34:01.034Z,24.85
2017-06-09T07:34:41.642Z,24.84
2017-06-09T07:35:22.253Z,24.93
2017-06-09T07:36:03.290Z,24.88
2017-06-09T07:36:46.656Z,25.1
2017-06-09T07:37:31.981Z,25.07
2017-06-09T07:38:46.117Z,25.16
2017-06-09T07:39:39.364Z,25.31
2017-06-09T07:40:26.776Z,25.18
2017-06-09T07:41:20.843Z,25.25
2017-06-09T07:42:20.132Z,25.22
2017-06-09T07:43:05.157Z,25.17
2017-06-09T07:43:47.176Z,25.17
2017-06-09T07:44:29.128Z,25.14
2017-06-09T07:45:11.755Z,25.13
2017-06-09T07:45:52.800Z,25.04
2017-06-09T07:46:34.033Z,25.08
2017-06-09T07:47:16.489Z,25.06
2017-06-09T07:47:59.795Z,25.17
2017-06-09T07:48:47.143Z,25.04
2017-06-09T07:49:34.001Z,25.04
2017-06-09T07:50:15.188Z,25.01
2017-06-09T07:50:55.811Z,25.04
2017-06-09T07:51:36.982Z,24.98
2017-06-09T07:52:20.254Z,25.01
2017-06-09T07:53:04.330Z,25.1
2017-06-09T07:53:48.076Z,25.13
2017-06-09T07:54:28.696Z,25.13
2017-06-09T07:55:09.286Z,25.16
2017-06-09T07:55:49.882Z,25.11
2017-06-09T07:56:32.780Z,25.16
2017-06-09T07:57:15.568Z,25.23
2017-06-09T07:57:56.162Z,25.22
2017-06-09T07:58:36.759Z,25.33
2017-06-09T07:59:17.388Z,25.33
2017-06-09T07:59:57.990Z,25.33
2017-06-09T08:00:39.782Z,25.35
2017-06-09T08:01:34.564Z,25.23
2017-06-09T08:02:15.152Z,25.26
2017-06-09T08:02:55.758Z,25.25
2017-06-09T08:03:36.441Z,25.29
2017-06-09T08:04:17.042Z,25.26
2017-06-09T08:04:57.804Z,25.16
2017-06-09T08:05:38.430Z,25.28
2017-06-09T08:06:20.237Z,25.25
2017-06-09T08:07:01.202Z,25.21
2017-06-09T08:07:41.796Z,25.25
2017-06-09T08:08:24.939Z,25.17
2017-06-09T08:09:06.575Z,25.17
2017-06-09T08:09:47.407Z,25.13
2017-06-09T08:10:28.656Z,25.1
2017-06-09T08:11:13.445Z,25.11
2017-06-09T08:11:56.045Z,25.06
2017-06-09T08:12:36.659Z,25.08
2017-06-09T08:13:17.269Z,25.07
2017-06-09T08:13:58.153Z,25.07
2017-06-09T08:14:39.037Z,25.06
2017-06-09T08:15:19.644Z,25.06
2017-06-09T08:16:01.778Z,25.06
2017-06-09T08:16:45.453Z,25.07
2017-06-09T08:17:28.900Z,25.13
2017-06-09T08:19:27.844Z,25.17
2017-06-09T08:20:08.500Z,25.22
2017-06-09T08:20:49.079Z,25.21
2017-06-09T08:21:29.670Z,25.33
2017-06-09T08:22:10.249Z,25.36
2017-06-09T08:22:51.085Z,25.35
2017-06-09T08:23:31.734Z,25.4
2017-06-09T08:24:14.368Z,25.4
2017-06-09T08:24:54.950Z,25.4
2017-06-09T08:25:35.540Z,25.44
2017-06-09T08:26:16.828Z,25.43
2017-06-09T08:26:57.415Z,25.44
2017-06-09T08:27:38.013Z,25.44
2017-06-09T08:28:19.997Z,25.53
2017-06-09T08:29:01.350Z,25.53
2017-06-09T08:29:46.459Z,25.55
2017-06-09T08:31:01.065Z,25.58
2017-06-09T08:31:41.698Z,25.66
2017-06-09T08:32:22.701Z,25.68
2017-06-09T08:33:07.492Z,25.58
2017-06-09T08:33:54.600Z,25.63
2017-06-09T08:34:38.892Z,25.63
2017-06-09T08:35:28.352Z,25.69
2017-06-09T08:36:26.512Z,25.68
2017-06-09T08:37:21.470Z,25.5
2017-06-09T08:38:05.738Z,25.53
2017-06-09T08:38:50.223Z,25.59
2017-06-09T08:39:30.817Z,25.53
2017-06-09T08:40:12.173Z,25.44
2017-06-09T08:40:52.827Z,25.44
2017-06-09T08:41:33.479Z,25.47
2017-06-09T08:42:14.055Z,25.47
2017-06-09T08:42:54.645Z,25.47
2017-06-09T08:43:35.246Z,25.44
2017-06-09T08:44:15.853Z,25.46
2017-06-09T08:44:56.462Z,25.41
2017-06-09T08:45:37.057Z,25.41
2017-06-09T08:46:17.716Z,25.47
2017-06-09T08:46:58.296Z,25.41
2017-06-09T08:47:38.882Z,25.35
2017-06-09T08:48:19.562Z,25.4
2017-06-09T08:49:00.141Z,25.54
2017-06-09T08:49:40.734Z,25.48
2017-06-09T08:50:21.328Z,25.55
2017-06-09T08:51:02.004Z,25.51
2017-06-09T08:51:42.717Z,25.53
2017-06-09T08:52:23.371Z,25.47